sensor_id;sensor_type;location;lat;lon;timestamp;pressure;altitude;pressure_sealevel;temperature;humidity
34931;BME280;21134;49.646;8.560;2023-07-31T00:00:06;100345.16;;;19.25;67.95
34931;BME280;21134;49.646;8.560;2023-07-31T00:02:34;100340.00;;;19.24;68.23
34931;BME280;21134;49.646;8.560;2023-07-31T00:05:00;100335.00;;;19.19;68.35
34931;BME280;21134;49.646;8.560;2023-07-31T00:07:27;100337.28;;;19.27;67.97
34931;BME280;21134;49.646;8.560;2023-07-31T00:09:53;100333.94;;;19.25;66.86
34931;BME280;21134;49.646;8.560;2023-07-31T00:12:21;100339.13;;;19.25;66.27
34931;BME280;21134;49.646;8.560;2023-07-31T00:14:49;100338.16;;;19.27;66.32
34931;BME280;21134;49.646;8.560;2023-07-31T00:17:17;100334.59;;;19.30;66.26
34931;BME280;21134;49.646;8.560;2023-07-31T00:19:43;100331.94;;;19.32;65.81
34931;BME280;21134;49.646;8.560;2023-07-31T00:22:11;100336.16;;;19.34;65.70
34931;BME280;21134;49.646;8.560;2023-07-31T00:24:38;100336.16;;;19.34;64.79
34931;BME280;21134;49.646;8.560;2023-07-31T00:27:05;100324.94;;;19.34;64.94
34931;BME280;21134;49.646;8.560;2023-07-31T00:29:31;100323.97;;;19.36;64.80
34931;BME280;21134;49.646;8.560;2023-07-31T00:31:59;100329.09;;;19.38;64.86
34931;BME280;21134;49.646;8.560;2023-07-31T00:34:26;100326.44;;;19.39;64.61
34931;BME280;21134;49.646;8.560;2023-07-31T00:36:52;100327.47;;;19.35;65.23
34931;BME280;21134;49.646;8.560;2023-07-31T00:39:19;100327.22;;;19.41;65.82
34931;BME280;21134;49.646;8.560;2023-07-31T00:41:45;100329.03;;;19.39;66.21
34931;BME280;21134;49.646;8.560;2023-07-31T00:44:12;100325.91;;;19.31;67.01
34931;BME280;21134;49.646;8.560;2023-07-31T00:46:38;100325.06;;;19.31;67.00
34931;BME280;21134;49.646;8.560;2023-07-31T00:49:07;100324.41;;;19.25;67.85
34931;BME280;21134;49.646;8.560;2023-07-31T00:51:34;100314.13;;;19.22;68.52
34931;BME280;21134;49.646;8.560;2023-07-31T00:54:00;100308.28;;;19.17;68.93
34931;BME280;21134;49.646;8.560;2023-07-31T00:56:28;100318.84;;;19.13;69.42
34931;BME280;21134;49.646;8.560;2023-07-31T00:58:55;100312.69;;;19.15;69.25
34931;BME280;21134;49.646;8.560;2023-07-31T01:01:21;100317.09;;;19.13;69.58
34931;BME280;21134;49.646;8.560;2023-07-31T01:03:48;100314.63;;;19.10;70.20
34931;BME280;21134;49.646;8.560;2023-07-31T01:06:29;100302.81;;;19.03;70.15
34931;BME280;21134;49.646;8.560;2023-07-31T01:09:01;100297.94;;;18.95;69.91
34931;BME280;21134;49.646;8.560;2023-07-31T01:11:30;100298.56;;;19.00;69.46
34931;BME280;21134;49.646;8.560;2023-07-31T01:13:57;100309.03;;;18.99;70.13
34931;BME280;21134;49.646;8.560;2023-07-31T01:16:25;100307.50;;;18.93;70.61
34931;BME280;21134;49.646;8.560;2023-07-31T01:18:51;100308.47;;;18.91;70.81
34931;BME280;21134;49.646;8.560;2023-07-31T01:21:28;100300.63;;;18.92;70.46
34931;BME280;21134;49.646;8.560;2023-07-31T01:24:19;100299.88;;;18.89;71.15
34931;BME280;21134;49.646;8.560;2023-07-31T01:26:53;100304.59;;;19.01;70.29
34931;BME280;21134;49.646;8.560;2023-07-31T01:29:26;100307.44;;;18.95;71.46
34931;BME280;21134;49.646;8.560;2023-07-31T01:31:56;100304.41;;;18.84;71.86
34931;BME280;21134;49.646;8.560;2023-07-31T01:34:26;100295.09;;;18.79;71.32
34931;BME280;21134;49.646;8.560;2023-07-31T01:36:55;100305.63;;;18.97;70.68
34931;BME280;21134;49.646;8.560;2023-07-31T01:39:22;100302.56;;;18.87;71.85
34931;BME280;21134;49.646;8.560;2023-07-31T01:41:50;100296.44;;;18.88;70.57
34931;BME280;21134;49.646;8.560;2023-07-31T01:44:16;100295.50;;;18.91;70.78
34931;BME280;21134;49.646;8.560;2023-07-31T01:46:43;100299.00;;;18.90;71.34
34931;BME280;21134;49.646;8.560;2023-07-31T01:49:09;100293.22;;;18.83;71.47
34931;BME280;21134;49.646;8.560;2023-07-31T01:51:36;100295.19;;;18.76;71.38
34931;BME280;21134;49.646;8.560;2023-07-31T01:54:03;100296.03;;;18.77;71.78
34931;BME280;21134;49.646;8.560;2023-07-31T01:56:29;100292.72;;;18.73;71.68
34931;BME280;21134;49.646;8.560;2023-07-31T01:58:57;100297.91;;;18.72;72.15
34931;BME280;21134;49.646;8.560;2023-07-31T02:01:23;100285.81;;;18.72;71.76
34931;BME280;21134;49.646;8.560;2023-07-31T02:03:50;100283.28;;;18.71;71.81
34931;BME280;21134;49.646;8.560;2023-07-31T02:06:16;100279.84;;;18.70;72.01
34931;BME280;21134;49.646;8.560;2023-07-31T02:08:43;100274.03;;;18.64;72.46
34931;BME280;21134;49.646;8.560;2023-07-31T02:11:09;100265.47;;;18.62;72.32
34931;BME280;21134;49.646;8.560;2023-07-31T02:13:36;100266.38;;;18.61;72.20
34931;BME280;21134;49.646;8.560;2023-07-31T02:16:04;100275.22;;;18.55;72.21
34931;BME280;21134;49.646;8.560;2023-07-31T02:18:30;100271.00;;;18.52;71.90
34931;BME280;21134;49.646;8.560;2023-07-31T02:20:57;100258.88;;;18.53;72.13
34931;BME280;21134;49.646;8.560;2023-07-31T02:23:23;100268.47;;;18.51;72.33
34931;BME280;21134;49.646;8.560;2023-07-31T02:25:50;100256.53;;;18.47;72.18
34931;BME280;21134;49.646;8.560;2023-07-31T02:28:16;100260.84;;;18.46;71.83
34931;BME280;21134;49.646;8.560;2023-07-31T02:30:44;100249.78;;;18.43;72.44
34931;BME280;21134;49.646;8.560;2023-07-31T02:33:13;100249.78;;;18.43;72.95
34931;BME280;21134;49.646;8.560;2023-07-31T02:35:40;100247.06;;;18.46;71.69
34931;BME280;21134;49.646;8.560;2023-07-31T02:38:06;100253.16;;;18.45;72.34
34931;BME280;21134;49.646;8.560;2023-07-31T02:40:32;100250.63;;;18.43;72.14
34931;BME280;21134;49.646;8.560;2023-07-31T02:42:59;100248.13;;;18.40;72.67
34931;BME280;21134;49.646;8.560;2023-07-31T02:45:26;100246.47;;;18.39;72.79
34931;BME280;21134;49.646;8.560;2023-07-31T02:47:52;100243.13;;;18.35;72.48
34931;BME280;21134;49.646;8.560;2023-07-31T02:50:20;100246.47;;;18.39;72.47
34931;BME280;21134;49.646;8.560;2023-07-31T02:52:47;100250.00;;;18.36;72.60
34931;BME280;21134;49.646;8.560;2023-07-31T02:55:14;100249.34;;;18.31;73.31
34931;BME280;21134;49.646;8.560;2023-07-31T02:57:40;100247.84;;;18.24;73.64
34931;BME280;21134;49.646;8.560;2023-07-31T03:00:07;100251.13;;;18.29;72.25
34931;BME280;21134;49.646;8.560;2023-07-31T03:02:34;100235.81;;;18.23;72.59
34931;BME280;21134;49.646;8.560;2023-07-31T03:05:01;100237.34;;;18.29;72.73
34931;BME280;21134;49.646;8.560;2023-07-31T03:07:29;100243.50;;;18.25;72.80
34931;BME280;21134;49.646;8.560;2023-07-31T03:09:55;100235.97;;;18.19;73.15
34931;BME280;21134;49.646;8.560;2023-07-31T03:12:22;100239.19;;;18.25;72.73
34931;BME280;21134;49.646;8.560;2023-07-31T03:14:49;100234.91;;;18.24;72.83
34931;BME280;21134;49.646;8.560;2023-07-31T03:17:15;100240.88;;;18.26;72.15
34931;BME280;21134;49.646;8.560;2023-07-31T03:19:42;100245.47;;;18.18;72.24
34931;BME280;21134;49.646;8.560;2023-07-31T03:22:08;100247.13;;;18.21;72.75
34931;BME280;21134;49.646;8.560;2023-07-31T03:24:36;100244.59;;;18.19;72.75
34931;BME280;21134;49.646;8.560;2023-07-31T03:27:03;100253.16;;;18.21;72.92
34931;BME280;21134;49.646;8.560;2023-07-31T03:29:30;100253.88;;;18.25;72.73
34931;BME280;21134;49.646;8.560;2023-07-31T03:31:56;100242.91;;;18.18;72.13
34931;BME280;21134;49.646;8.560;2023-07-31T03:34:24;100242.97;;;18.17;72.40
34931;BME280;21134;49.646;8.560;2023-07-31T03:36:50;100238.50;;;18.20;72.33
34931;BME280;21134;49.646;8.560;2023-07-31T03:39:17;100235.09;;;18.20;72.22
34931;BME280;21134;49.646;8.560;2023-07-31T03:41:45;100249.72;;;18.21;72.00
34931;BME280;21134;49.646;8.560;2023-07-31T03:44:11;100243.41;;;18.28;71.65
34931;BME280;21134;49.646;8.560;2023-07-31T03:46:38;100235.00;;;18.21;71.74
34931;BME280;21134;49.646;8.560;2023-07-31T03:49:04;100233.16;;;18.25;71.50
34931;BME280;21134;49.646;8.560;2023-07-31T03:51:31;100229.00;;;18.21;70.96
34931;BME280;21134;49.646;8.560;2023-07-31T03:53:57;100232.50;;;18.20;71.69
34931;BME280;21134;49.646;8.560;2023-07-31T03:56:24;100231.66;;;18.19;71.56
34931;BME280;21134;49.646;8.560;2023-07-31T03:58:51;100235.13;;;18.18;71.75
34931;BME280;21134;49.646;8.560;2023-07-31T04:01:19;100237.59;;;18.21;71.23
34931;BME280;21134;49.646;8.560;2023-07-31T04:03:46;100235.00;;;18.21;71.50
34931;BME280;21134;49.646;8.560;2023-07-31T04:06:12;100244.31;;;18.27;70.79
34931;BME280;21134;49.646;8.560;2023-07-31T04:08:39;100239.31;;;18.22;71.20
34931;BME280;21134;49.646;8.560;2023-07-31T04:11:05;100239.34;;;18.21;71.08
34931;BME280;21134;49.646;8.560;2023-07-31T04:13:32;100236.84;;;18.19;71.04
34931;BME280;21134;49.646;8.560;2023-07-31T04:16:05;100235.94;;;18.20;70.84
34931;BME280;21134;49.646;8.560;2023-07-31T04:18:37;100239.84;;;18.30;70.29
34931;BME280;21134;49.646;8.560;2023-07-31T04:21:04;100240.88;;;18.26;70.93
34931;BME280;21134;49.646;8.560;2023-07-31T04:23:30;100239.13;;;18.27;71.37
34931;BME280;21134;49.646;8.560;2023-07-31T04:25:57;100238.28;;;18.26;70.43
34931;BME280;21134;49.646;8.560;2023-07-31T04:28:23;100234.75;;;18.29;71.07
34931;BME280;21134;49.646;8.560;2023-07-31T04:30:51;100240.81;;;18.28;70.79
34931;BME280;21134;49.646;8.560;2023-07-31T04:33:19;100237.22;;;18.32;70.74
34931;BME280;21134;49.646;8.560;2023-07-31T04:35:49;100234.69;;;18.30;70.83
34931;BME280;21134;49.646;8.560;2023-07-31T04:38:17;100227.13;;;18.24;71.17
34931;BME280;21134;49.646;8.560;2023-07-31T04:40:44;100234.75;;;18.29;71.31
34931;BME280;21134;49.646;8.560;2023-07-31T04:43:10;100234.75;;;18.29;71.45
34931;BME280;21134;49.646;8.560;2023-07-31T04:45:37;100238.06;;;18.32;70.94
34931;BME280;21134;49.646;8.560;2023-07-31T04:48:04;100230.28;;;18.32;71.17
34931;BME280;21134;49.646;8.560;2023-07-31T04:50:31;100230.28;;;18.32;71.88
34931;BME280;21134;49.646;8.560;2023-07-31T04:52:58;100222.41;;;18.35;71.12
34931;BME280;21134;49.646;8.560;2023-07-31T04:55:24;100234.56;;;18.33;70.64
34931;BME280;21134;49.646;8.560;2023-07-31T04:57:51;100224.81;;;18.40;70.60
34931;BME280;21134;49.646;8.560;2023-07-31T05:00:18;100223.69;;;18.47;70.52
34931;BME280;21134;49.646;8.560;2023-07-31T05:02:44;100222.91;;;18.45;70.51
34931;BME280;21134;49.646;8.560;2023-07-31T05:05:11;100226.13;;;18.52;69.74
34931;BME280;21134;49.646;8.560;2023-07-31T05:07:39;100231.34;;;18.50;70.16
34931;BME280;21134;49.646;8.560;2023-07-31T05:10:06;100232.22;;;18.51;71.01
34931;BME280;21134;49.646;8.560;2023-07-31T05:12:32;100227.91;;;18.50;70.21
34931;BME280;21134;49.646;8.560;2023-07-31T05:14:59;100226.13;;;18.52;70.76
34931;BME280;21134;49.646;8.560;2023-07-31T05:17:25;100225.19;;;18.53;70.63
34931;BME280;21134;49.646;8.560;2023-07-31T05:19:52;100215.66;;;18.53;70.85
34931;BME280;21134;49.646;8.560;2023-07-31T05:22:18;100222.72;;;18.50;70.70
34931;BME280;21134;49.646;8.560;2023-07-31T05:24:46;100223.63;;;18.49;70.19
34931;BME280;21134;49.646;8.560;2023-07-31T05:27:13;100229.00;;;18.44;70.45
34931;BME280;21134;49.646;8.560;2023-07-31T05:29:40;100220.97;;;18.50;70.08
34931;BME280;21134;49.646;8.560;2023-07-31T05:32:07;100215.75;;;18.52;70.48
34931;BME280;21134;49.646;8.560;2023-07-31T05:34:33;100217.31;;;18.56;70.79
34931;BME280;21134;49.646;8.560;2023-07-31T05:37:00;100218.63;;;18.66;69.72
34931;BME280;21134;49.646;8.560;2023-07-31T05:39:26;100221.97;;;18.70;70.15
34931;BME280;21134;49.646;8.560;2023-07-31T05:41:54;100211.50;;;18.73;69.82
34931;BME280;21134;49.646;8.560;2023-07-31T05:44:21;100213.00;;;18.78;69.30
34931;BME280;21134;49.646;8.560;2023-07-31T05:46:47;100215.69;;;18.77;69.76
34931;BME280;21134;49.646;8.560;2023-07-31T05:49:14;100210.97;;;18.87;68.95
34931;BME280;21134;49.646;8.560;2023-07-31T05:51:40;100208.41;;;18.85;69.08
34931;BME280;21134;49.646;8.560;2023-07-31T05:54:06;100210.19;;;18.85;69.44
34931;BME280;21134;49.646;8.560;2023-07-31T05:56:33;100206.50;;;18.90;69.43
34931;BME280;21134;49.646;8.560;2023-07-31T05:59:01;100209.44;;;19.03;68.22
34931;BME280;21134;49.646;8.560;2023-07-31T06:01:28;100205.06;;;19.05;68.77
34931;BME280;21134;49.646;8.560;2023-07-31T06:03:54;100201.94;;;19.17;67.64
34931;BME280;21134;49.646;8.560;2023-07-31T06:06:21;100192.81;;;19.29;68.09
34931;BME280;21134;49.646;8.560;2023-07-31T06:08:47;100199.81;;;19.47;66.40
34931;BME280;21134;49.646;8.560;2023-07-31T06:11:15;100193.00;;;19.45;66.92
34931;BME280;21134;49.646;8.560;2023-07-31T06:13:41;100187.09;;;19.41;67.94
34931;BME280;21134;49.646;8.560;2023-07-31T06:16:11;100187.28;;;19.37;67.63
34931;BME280;21134;49.646;8.560;2023-07-31T06:18:37;100198.28;;;19.43;67.31
34931;BME280;21134;49.646;8.560;2023-07-31T06:21:04;100192.09;;;19.46;67.18
34931;BME280;21134;49.646;8.560;2023-07-31T06:23:30;100190.81;;;19.56;66.94
34931;BME280;21134;49.646;8.560;2023-07-31T06:25:57;100191.78;;;19.74;66.91
34931;BME280;21134;49.646;8.560;2023-07-31T06:28:27;100193.50;;;19.75;66.25
34931;BME280;21134;49.646;8.560;2023-07-31T06:30:55;100189.31;;;19.91;66.21
34931;BME280;21134;49.646;8.560;2023-07-31T06:33:23;100192.81;;;20.09;65.68
34931;BME280;21134;49.646;8.560;2023-07-31T06:35:50;100193.78;;;20.26;64.62
34931;BME280;21134;49.646;8.560;2023-07-31T06:38:18;100189.66;;;20.21;65.16
34931;BME280;21134;49.646;8.560;2023-07-31T06:40:45;100182.22;;;20.14;65.27
34931;BME280;21134;49.646;8.560;2023-07-31T06:43:11;100187.41;;;20.14;65.74
34931;BME280;21134;49.646;8.560;2023-07-31T06:45:38;100192.50;;;19.96;65.83
34931;BME280;21134;49.646;8.560;2023-07-31T06:48:04;100197.78;;;19.95;66.21
34931;BME280;21134;49.646;8.560;2023-07-31T06:50:32;100203.97;;;19.92;66.81
34931;BME280;21134;49.646;8.560;2023-07-31T06:52:59;100205.19;;;20.04;66.37
34931;BME280;21134;49.646;8.560;2023-07-31T06:55:26;100198.50;;;20.17;66.00
34931;BME280;21134;49.646;8.560;2023-07-31T06:57:54;100203.28;;;20.27;65.81
34931;BME280;21134;49.646;8.560;2023-07-31T07:00:22;100199.00;;;20.26;65.76
34931;BME280;21134;49.646;8.560;2023-07-31T07:02:49;100202.09;;;20.15;65.45
34931;BME280;21134;49.646;8.560;2023-07-31T07:05:16;100193.47;;;20.14;65.82
34931;BME280;21134;49.646;8.560;2023-07-31T07:07:44;100200.00;;;20.23;65.49
34931;BME280;21134;49.646;8.560;2023-07-31T07:10:11;100192.63;;;20.14;66.15
34931;BME280;21134;49.646;8.560;2023-07-31T07:12:37;100186.09;;;20.24;66.38
34931;BME280;21134;49.646;8.560;2023-07-31T07:15:05;100193.66;;;20.48;65.81
34931;BME280;21134;49.646;8.560;2023-07-31T07:17:32;100197.97;;;20.85;64.54
34931;BME280;21134;49.646;8.560;2023-07-31T07:19:58;100194.41;;;20.87;64.41
34931;BME280;21134;49.646;8.560;2023-07-31T07:22:25;100179.47;;;20.91;64.27
34931;BME280;21134;49.646;8.560;2023-07-31T07:24:53;100184.09;;;21.03;64.34
34931;BME280;21134;49.646;8.560;2023-07-31T07:27:20;100190.50;;;21.13;63.60
34931;BME280;21134;49.646;8.560;2023-07-31T07:29:47;100182.63;;;21.15;63.76
34931;BME280;21134;49.646;8.560;2023-07-31T07:32:13;100174.50;;;21.04;64.42
34931;BME280;21134;49.646;8.560;2023-07-31T07:34:40;100176.34;;;21.02;63.32
34931;BME280;21134;49.646;8.560;2023-07-31T07:37:07;100183.00;;;21.07;64.54
34931;BME280;21134;49.646;8.560;2023-07-31T07:39:33;100176.50;;;21.16;63.79
34931;BME280;21134;49.646;8.560;2023-07-31T07:42:01;100178.81;;;21.40;63.05
34931;BME280;21134;49.646;8.560;2023-07-31T07:44:28;100177.88;;;21.58;62.70
34931;BME280;21134;49.646;8.560;2023-07-31T07:46:55;100187.50;;;21.73;62.09
34931;BME280;21134;49.646;8.560;2023-07-31T07:49:21;100172.59;;;21.93;61.48
34931;BME280;21134;49.646;8.560;2023-07-31T07:51:48;100176.50;;;22.33;59.60
34931;BME280;21134;49.646;8.560;2023-07-31T07:54:15;100173.88;;;22.17;60.25
34931;BME280;21134;49.646;8.560;2023-07-31T07:56:42;100179.09;;;22.33;60.19
34931;BME280;21134;49.646;8.560;2023-07-31T07:59:10;100172.38;;;22.29;60.43
34931;BME280;21134;49.646;8.560;2023-07-31T08:01:37;100164.91;;;22.39;61.20
34931;BME280;21134;49.646;8.560;2023-07-31T08:04:03;100155.28;;;22.55;60.39
34931;BME280;21134;49.646;8.560;2023-07-31T08:06:30;100157.72;;;22.58;60.32
34931;BME280;21134;49.646;8.560;2023-07-31T08:08:56;100157.50;;;22.47;59.91
34931;BME280;21134;49.646;8.560;2023-07-31T08:11:23;100152.34;;;22.61;59.50
34931;BME280;21134;49.646;8.560;2023-07-31T08:13:49;100165.56;;;22.42;59.67
34931;BME280;21134;49.646;8.560;2023-07-31T08:16:17;100162.47;;;22.20;60.15
34931;BME280;21134;49.646;8.560;2023-07-31T08:18:44;100149.91;;;22.11;60.76
34931;BME280;21134;49.646;8.560;2023-07-31T08:21:10;100149.38;;;22.21;60.76
34931;BME280;21134;49.646;8.560;2023-07-31T08:23:37;100152.31;;;22.31;60.31
34931;BME280;21134;49.646;8.560;2023-07-31T08:26:03;100141.19;;;22.59;59.81
34931;BME280;21134;49.646;8.560;2023-07-31T08:28:30;100130.16;;;22.54;59.16
34931;BME280;21134;49.646;8.560;2023-07-31T08:30:56;100129.53;;;22.65;59.50
34931;BME280;21134;49.646;8.560;2023-07-31T08:33:24;100132.97;;;22.65;58.49
34931;BME280;21134;49.646;8.560;2023-07-31T08:35:50;100130.72;;;23.05;58.95
34931;BME280;21134;49.646;8.560;2023-07-31T08:38:17;100123.00;;;23.18;57.33
34931;BME280;21134;49.646;8.560;2023-07-31T08:40:43;100115.53;;;23.12;58.13
34931;BME280;21134;49.646;8.560;2023-07-31T08:43:10;100110.91;;;23.31;57.61
34931;BME280;21134;49.646;8.560;2023-07-31T08:45:37;100108.19;;;23.47;57.98
34931;BME280;21134;49.646;8.560;2023-07-31T08:48:04;100102.34;;;23.72;56.01
34931;BME280;21134;49.646;8.560;2023-07-31T08:50:33;100113.53;;;23.88;56.56
34931;BME280;21134;49.646;8.560;2023-07-31T08:53:00;100113.56;;;24.16;56.38
34931;BME280;21134;49.646;8.560;2023-07-31T08:55:27;100104.72;;;24.45;55.04
34931;BME280;21134;49.646;8.560;2023-07-31T08:57:55;100103.22;;;24.68;54.72
34931;BME280;21134;49.646;8.560;2023-07-31T09:00:23;100103.22;;;24.81;53.65
34931;BME280;21134;49.646;8.560;2023-07-31T09:02:55;100095.13;;;24.58;54.45
34931;BME280;21134;49.646;8.560;2023-07-31T09:05:23;100102.19;;;24.44;53.06
34931;BME280;21134;49.646;8.560;2023-07-31T09:07:51;100092.34;;;24.20;55.27
34931;BME280;21134;49.646;8.560;2023-07-31T09:10:17;100098.91;;;24.13;53.88
34931;BME280;21134;49.646;8.560;2023-07-31T09:12:44;100107.91;;;23.95;55.95
34931;BME280;21134;49.646;8.560;2023-07-31T09:15:12;100103.56;;;23.81;56.20
34931;BME280;21134;49.646;8.560;2023-07-31T09:17:38;100101.22;;;23.76;56.35
34931;BME280;21134;49.646;8.560;2023-07-31T09:20:15;100096.28;;;23.43;56.84
34931;BME280;21134;49.646;8.560;2023-07-31T09:22:42;100105.13;;;23.26;56.63
34931;BME280;21134;49.646;8.560;2023-07-31T09:25:17;100088.13;;;23.19;57.01
34931;BME280;21134;49.646;8.560;2023-07-31T09:27:48;100102.22;;;23.45;56.25
34931;BME280;21134;49.646;8.560;2023-07-31T09:30:15;100089.94;;;23.61;55.33
34931;BME280;21134;49.646;8.560;2023-07-31T09:32:42;100091.88;;;23.86;55.86
34931;BME280;21134;49.646;8.560;2023-07-31T09:35:20;100082.00;;;23.77;55.88
34931;BME280;21134;49.646;8.560;2023-07-31T09:37:51;100089.56;;;23.53;56.85
34931;BME280;21134;49.646;8.560;2023-07-31T09:40:30;100087.22;;;23.49;56.36
34931;BME280;21134;49.646;8.560;2023-07-31T09:42:57;100086.75;;;23.28;57.42
34931;BME280;21134;49.646;8.560;2023-07-31T09:45:24;100076.22;;;23.15;58.07
34931;BME280;21134;49.646;8.560;2023-07-31T09:47:50;100071.63;;;23.04;57.43
34931;BME280;21134;49.646;8.560;2023-07-31T09:50:17;100069.41;;;22.98;57.48
34931;BME280;21134;49.646;8.560;2023-07-31T09:52:44;100070.84;;;22.88;57.65
34931;BME280;21134;49.646;8.560;2023-07-31T09:55:10;100066.34;;;22.75;58.37
34931;BME280;21134;49.646;8.560;2023-07-31T09:57:40;100055.25;;;22.72;58.84
34931;BME280;21134;49.646;8.560;2023-07-31T10:00:09;100059.47;;;22.89;59.20
34931;BME280;21134;49.646;8.560;2023-07-31T10:02:36;100065.22;;;22.80;57.36
34931;BME280;21134;49.646;8.560;2023-07-31T10:05:04;100061.41;;;22.85;57.44
34931;BME280;21134;49.646;8.560;2023-07-31T10:07:35;100060.84;;;23.10;57.64
34931;BME280;21134;49.646;8.560;2023-07-31T10:10:04;100056.56;;;23.24;57.63
34931;BME280;21134;49.646;8.560;2023-07-31T10:12:32;100055.31;;;23.29;57.35
34931;BME280;21134;49.646;8.560;2023-07-31T10:15:02;100045.91;;;23.55;57.31
34931;BME280;21134;49.646;8.560;2023-07-31T10:17:29;100035.91;;;23.76;56.64
34931;BME280;21134;49.646;8.560;2023-07-31T10:19:58;100031.81;;;23.99;55.24
34931;BME280;21134;49.646;8.560;2023-07-31T10:22:26;100023.16;;;24.26;55.73
34931;BME280;21134;49.646;8.560;2023-07-31T10:24:55;100024.34;;;24.47;55.16
34931;BME280;21134;49.646;8.560;2023-07-31T10:27:23;100022.44;;;24.89;53.08
34931;BME280;21134;49.646;8.560;2023-07-31T10:29:50;100015.19;;;25.05;53.82
34931;BME280;21134;49.646;8.560;2023-07-31T10:32:20;100022.84;;;24.96;53.47
34931;BME280;21134;49.646;8.560;2023-07-31T10:34:49;100031.84;;;24.92;53.84
34931;BME280;21134;49.646;8.560;2023-07-31T10:37:23;100018.94;;;24.89;53.20
34931;BME280;21134;49.646;8.560;2023-07-31T10:39:58;100025.13;;;24.62;52.45
34931;BME280;21134;49.646;8.560;2023-07-31T10:42:32;100025.56;;;24.29;54.71
34931;BME280;21134;49.646;8.560;2023-07-31T10:45:00;100025.00;;;24.24;54.19
34931;BME280;21134;49.646;8.560;2023-07-31T10:47:29;100033.69;;;24.24;54.35
34931;BME280;21134;49.646;8.560;2023-07-31T10:50:16;100021.00;;;24.18;54.49
34931;BME280;21134;49.646;8.560;2023-07-31T10:52:46;100032.13;;;24.34;54.87
34931;BME280;21134;49.646;8.560;2023-07-31T10:55:15;100028.06;;;24.30;53.95
34931;BME280;21134;49.646;8.560;2023-07-31T10:57:44;100027.53;;;24.25;54.60
34931;BME280;21134;49.646;8.560;2023-07-31T11:00:20;100028.03;;;24.18;54.63
34931;BME280;21134;49.646;8.560;2023-07-31T11:02:58;100019.78;;;24.24;53.95
34931;BME280;21134;49.646;8.560;2023-07-31T11:05:43;100015.19;;;24.54;53.52
34931;BME280;21134;49.646;8.560;2023-07-31T11:08:11;100010.16;;;24.51;53.50
34931;BME280;21134;49.646;8.560;2023-07-31T11:10:38;100012.38;;;24.57;53.30
34931;BME280;21134;49.646;8.560;2023-07-31T11:13:04;100006.59;;;24.52;53.87
34931;BME280;21134;49.646;8.560;2023-07-31T11:15:31;100000.94;;;24.46;53.14
34931;BME280;21134;49.646;8.560;2023-07-31T11:18:00;100000.56;;;24.37;52.44
34931;BME280;21134;49.646;8.560;2023-07-31T11:20:30;100019.00;;;24.09;53.12
34931;BME280;21134;49.646;8.560;2023-07-31T11:22:59;100005.03;;;23.69;53.70
34931;BME280;21134;49.646;8.560;2023-07-31T11:25:25;100012.13;;;23.52;59.62
34931;BME280;21134;49.646;8.560;2023-07-31T11:27:52;100000.09;;;23.50;60.64
34931;BME280;21134;49.646;8.560;2023-07-31T11:30:19;100003.38;;;23.53;62.72
34931;BME280;21134;49.646;8.560;2023-07-31T11:32:46;100007.22;;;23.19;62.79
34931;BME280;21134;49.646;8.560;2023-07-31T11:35:14;100016.69;;;22.91;64.41
34931;BME280;21134;49.646;8.560;2023-07-31T11:37:41;100009.13;;;22.87;65.39
34931;BME280;21134;49.646;8.560;2023-07-31T11:40:09;100007.25;;;22.60;64.48
34931;BME280;21134;49.646;8.560;2023-07-31T11:42:36;99998.00;;;22.55;65.05
34931;BME280;21134;49.646;8.560;2023-07-31T11:45:03;99997.88;;;22.42;67.34
34931;BME280;21134;49.646;8.560;2023-07-31T11:47:31;99990.75;;;22.29;65.01
34931;BME280;21134;49.646;8.560;2023-07-31T11:49:59;99978.56;;;22.30;66.01
34931;BME280;21134;49.646;8.560;2023-07-31T11:52:27;99976.22;;;22.25;65.86
34931;BME280;21134;49.646;8.560;2023-07-31T11:54:55;99975.22;;;22.28;66.61
34931;BME280;21134;49.646;8.560;2023-07-31T11:57:22;99967.97;;;22.33;65.57
34931;BME280;21134;49.646;8.560;2023-07-31T11:59:50;99972.16;;;22.36;64.09
34931;BME280;21134;49.646;8.560;2023-07-31T12:02:18;99961.56;;;22.39;62.87
34931;BME280;21134;49.646;8.560;2023-07-31T12:04:46;99964.03;;;22.56;60.95
34931;BME280;21134;49.646;8.560;2023-07-31T12:07:13;99964.88;;;22.71;60.56
34931;BME280;21134;49.646;8.560;2023-07-31T12:09:52;99973.69;;;22.68;60.11
34931;BME280;21134;49.646;8.560;2023-07-31T12:12:19;99967.84;;;22.65;61.37
34931;BME280;21134;49.646;8.560;2023-07-31T12:14:46;99956.66;;;22.77;60.58
34931;BME280;21134;49.646;8.560;2023-07-31T12:17:14;99960.06;;;22.93;60.14
34931;BME280;21134;49.646;8.560;2023-07-31T12:19:40;99953.16;;;23.07;58.70
34931;BME280;21134;49.646;8.560;2023-07-31T12:22:11;99945.13;;;23.10;57.32
34931;BME280;21134;49.646;8.560;2023-07-31T12:24:39;99954.38;;;23.15;57.72
34931;BME280;21134;49.646;8.560;2023-07-31T12:27:10;99944.19;;;23.25;58.43
34931;BME280;21134;49.646;8.560;2023-07-31T12:29:37;99946.97;;;23.36;57.64
34931;BME280;21134;49.646;8.560;2023-07-31T12:32:05;99940.06;;;23.35;56.24
34931;BME280;21134;49.646;8.560;2023-07-31T12:34:44;99937.25;;;23.38;56.63
34931;BME280;21134;49.646;8.560;2023-07-31T12:37:10;99934.31;;;23.30;56.34
34931;BME280;21134;49.646;8.560;2023-07-31T12:39:36;99943.16;;;23.28;57.28
34931;BME280;21134;49.646;8.560;2023-07-31T12:42:04;99932.06;;;23.24;57.52
34931;BME280;21134;49.646;8.560;2023-07-31T12:44:32;99923.59;;;23.20;57.66
34931;BME280;21134;49.646;8.560;2023-07-31T12:46:58;99930.16;;;23.13;57.35
34931;BME280;21134;49.646;8.560;2023-07-31T12:49:25;99925.53;;;23.31;56.45
34931;BME280;21134;49.646;8.560;2023-07-31T12:51:51;99917.91;;;23.28;56.91